DAL2766 KLAX-KPDX
Flight info
| Callsign | DAL2766 |
|---|---|
| Flight time | 1h 40m |
| Altitude | 36000 |
| Route | LADYJ4 CSTRO SHIMR LMT MOXEE TMBRS4 |
| Aircraft | A320/M-SDE3FGHIRWY/LB1 |
Departure
| Time | 2026-04-21 17:17 |
|---|---|
| Airport | Los Angeles International Airport (KLAX) |
Arrival
| Time | 2026-04-21 18:58 |
|---|---|
| Airport | Portland International Airport (KPDX) |
| Time | Latitude | Longitude | Altitude | Speed | Heading |
|---|---|---|---|---|---|
| 2026-04-21 16:33 | 33.94706 | -118.40744 | 93 ft | 0 kts | 192° |
| 2026-04-21 17:10 | 33.94707 | -118.40743 | 93 ft | 2 kts | 192° |
| 2026-04-21 17:10 | 33.94731 | -118.40738 | 94 ft | 4 kts | 180° |
| 2026-04-21 17:10 | 33.94756 | -118.40743 | 92 ft | 4 kts | 142° |
| 2026-04-21 17:10 | 33.94764 | -118.40759 | 95 ft | 0 kts | 83° |
| 2026-04-21 17:14 | 33.94765 | -118.40756 | 94 ft | 2 kts | 83° |
| 2026-04-21 17:14 | 33.94768 | -118.40725 | 95 ft | 6 kts | 83° |
| 2026-04-21 17:14 | 33.94774 | -118.40667 | 93 ft | 7 kts | 83° |
| 2026-04-21 17:14 | 33.94779 | -118.40618 | 95 ft | 5 kts | 75° |
| 2026-04-21 17:15 | 33.94813 | -118.40598 | 96 ft | 7 kts | 352° |
| 2026-04-21 17:15 | 33.94852 | -118.40593 | 94 ft | 8 kts | 33° |
| 2026-04-21 17:15 | 33.94873 | -118.40493 | 95 ft | 15 kts | 82° |
| 2026-04-21 17:15 | 33.94887 | -118.40364 | 96 ft | 16 kts | 84° |
| 2026-04-21 17:16 | 33.94899 | -118.40226 | 97 ft | 16 kts | 84° |
| 2026-04-21 17:16 | 33.94949 | -118.40175 | 97 ft | 7 kts | 356° |
| 2026-04-21 17:16 | 33.94981 | -118.40178 | 97 ft | 3 kts | 350° |
| 2026-04-21 17:16 | 33.95012 | -118.40280 | 98 ft | 30 kts | 262° |
| 2026-04-21 17:17 | 33.94955 | -118.40798 | 98 ft | 97 kts | 263° |
| 2026-04-21 17:17 | 33.94848 | -118.41827 | 99 ft | 151 kts | 262° |
| 2026-04-21 17:17 | 33.94711 | -118.43109 | 624 ft | 153 kts | 261° |
| 2026-04-21 17:17 | 33.94583 | -118.44394 | 1244 ft | 155 kts | 262° |
| 2026-04-21 17:18 | 33.94467 | -118.45687 | 1817 ft | 158 kts | 261° |
| 2026-04-21 17:18 | 33.94340 | -118.47094 | 2130 ft | 180 kts | 264° |
| 2026-04-21 17:18 | 33.94277 | -118.48699 | 2371 ft | 206 kts | 267° |
| 2026-04-21 17:18 | 33.94210 | -118.50553 | 2624 ft | 236 kts | 267° |
| 2026-04-21 17:19 | 33.94117 | -118.52615 | 3173 ft | 256 kts | 265° |
| 2026-04-21 17:19 | 33.93973 | -118.54796 | 3990 ft | 263 kts | 264° |
| 2026-04-21 17:19 | 33.93782 | -118.56996 | 4936 ft | 266 kts | 263° |
| 2026-04-21 17:19 | 33.93587 | -118.59226 | 5868 ft | 269 kts | 264° |
| 2026-04-21 17:20 | 33.93694 | -118.61489 | 6731 ft | 274 kts | 284° |
| 2026-04-21 17:20 | 33.94507 | -118.63590 | 7613 ft | 280 kts | 305° |
| 2026-04-21 17:20 | 33.95893 | -118.65219 | 8464 ft | 286 kts | 324° |
| 2026-04-21 17:20 | 33.97633 | -118.66430 | 9335 ft | 290 kts | 329° |
| 2026-04-21 17:21 | 33.99533 | -118.67346 | 10132 ft | 298 kts | 344° |
| 2026-04-21 17:21 | 34.01623 | -118.67610 | 10830 ft | 310 kts | 359° |
| 2026-04-21 17:21 | 34.03868 | -118.67490 | 11106 ft | 334 kts | 1° |
| 2026-04-21 17:21 | 34.06277 | -118.67332 | 11368 ft | 358 kts | 1° |
| 2026-04-21 17:22 | 34.08782 | -118.66975 | 11786 ft | 374 kts | 11° |
| 2026-04-21 17:22 | 34.11362 | -118.66329 | 12440 ft | 382 kts | 10° |
| 2026-04-21 17:22 | 34.13987 | -118.65691 | 13091 ft | 388 kts | 10° |
| 2026-04-21 17:22 | 34.16664 | -118.65057 | 13751 ft | 394 kts | 9° |
| 2026-04-21 17:23 | 34.19378 | -118.64419 | 14406 ft | 399 kts | 9° |
| 2026-04-21 17:23 | 34.22120 | -118.63808 | 15060 ft | 403 kts | 6° |
| 2026-04-21 17:23 | 34.24932 | -118.63628 | 15692 ft | 404 kts | 355° |
| 2026-04-21 17:23 | 34.27728 | -118.64009 | 16325 ft | 405 kts | 345° |
| 2026-04-21 17:24 | 34.30475 | -118.64642 | 16943 ft | 409 kts | 345° |
| 2026-04-21 17:24 | 34.33282 | -118.65283 | 17548 ft | 412 kts | 345° |
| 2026-04-21 17:24 | 34.36121 | -118.65929 | 18110 ft | 417 kts | 345° |
| 2026-04-21 17:24 | 34.38993 | -118.66585 | 18608 ft | 422 kts | 345° |
| 2026-04-21 17:25 | 34.41889 | -118.67247 | 19210 ft | 425 kts | 345° |
| 2026-04-21 17:25 | 34.44814 | -118.67897 | 19787 ft | 429 kts | 346° |
| 2026-04-21 17:25 | 34.47773 | -118.68498 | 20376 ft | 433 kts | 346° |
| 2026-04-21 17:25 | 34.50762 | -118.69066 | 20938 ft | 436 kts | 347° |
| 2026-04-21 17:26 | 34.53777 | -118.69624 | 21483 ft | 440 kts | 347° |
| 2026-04-21 17:26 | 34.56820 | -118.70191 | 22003 ft | 444 kts | 347° |
| 2026-04-21 17:26 | 34.59889 | -118.70773 | 22509 ft | 447 kts | 346° |
| 2026-04-21 17:26 | 34.62941 | -118.71361 | 22988 ft | 450 kts | 346° |
| 2026-04-21 17:27 | 34.66049 | -118.71968 | 23465 ft | 453 kts | 346° |
| 2026-04-21 17:27 | 34.69178 | -118.72612 | 23920 ft | 454 kts | 343° |
| 2026-04-21 17:27 | 34.72198 | -118.73671 | 24341 ft | 451 kts | 333° |
| 2026-04-21 17:27 | 34.75042 | -118.75253 | 24763 ft | 447 kts | 324° |
| 2026-04-21 17:28 | 34.77756 | -118.77123 | 25175 ft | 448 kts | 324° |
| 2026-04-21 17:28 | 34.80446 | -118.78972 | 25572 ft | 452 kts | 324° |
| 2026-04-21 17:28 | 34.83193 | -118.80853 | 25986 ft | 454 kts | 324° |
| 2026-04-21 17:28 | 34.85952 | -118.82749 | 26358 ft | 456 kts | 324° |
| 2026-04-21 17:29 | 34.88728 | -118.84656 | 26720 ft | 458 kts | 324° |
| 2026-04-21 17:29 | 34.91507 | -118.86563 | 27075 ft | 459 kts | 324° |
| 2026-04-21 17:29 | 34.94305 | -118.88486 | 27403 ft | 461 kts | 324° |
| 2026-04-21 17:29 | 34.97112 | -118.90418 | 27714 ft | 464 kts | 324° |
| 2026-04-21 17:30 | 34.99929 | -118.92366 | 28022 ft | 466 kts | 324° |
| 2026-04-21 17:30 | 35.02725 | -118.94302 | 28317 ft | 468 kts | 324° |
| 2026-04-21 17:30 | 35.05566 | -118.96268 | 28633 ft | 470 kts | 324° |
| 2026-04-21 17:30 | 35.08417 | -118.98240 | 28915 ft | 472 kts | 324° |
| 2026-04-21 17:31 | 35.11282 | -119.00223 | 29184 ft | 474 kts | 324° |
| 2026-04-21 17:31 | 35.14155 | -119.02212 | 29445 ft | 476 kts | 324° |
| 2026-04-21 17:31 | 35.17052 | -119.04216 | 29696 ft | 478 kts | 324° |
| 2026-04-21 17:31 | 35.19956 | -119.06226 | 29944 ft | 480 kts | 324° |
| 2026-04-21 17:32 | 35.21882 | -119.07561 | 30100 ft | 481 kts | 324° |
| 2026-04-21 17:32 | 35.25781 | -119.10265 | 30419 ft | 483 kts | 323° |
| 2026-04-21 17:32 | 35.28712 | -119.12300 | 30698 ft | 483 kts | 323° |
| 2026-04-21 17:32 | 35.31589 | -119.14301 | 31013 ft | 481 kts | 323° |
| 2026-04-21 17:33 | 35.34500 | -119.16328 | 31334 ft | 480 kts | 323° |
| 2026-04-21 17:33 | 35.37400 | -119.18351 | 31651 ft | 478 kts | 323° |
| 2026-04-21 17:33 | 35.40291 | -119.20369 | 31972 ft | 477 kts | 323° |
| 2026-04-21 17:33 | 35.43188 | -119.22358 | 32275 ft | 480 kts | 326° |
| 2026-04-21 17:34 | 35.46313 | -119.23930 | 32586 ft | 489 kts | 336° |
| 2026-04-21 17:34 | 35.49617 | -119.24979 | 32886 ft | 491 kts | 340° |
| 2026-04-21 17:34 | 35.52942 | -119.25966 | 33174 ft | 491 kts | 339° |
| 2026-04-21 17:34 | 35.56221 | -119.26940 | 33463 ft | 490 kts | 339° |
| 2026-04-21 17:35 | 35.59541 | -119.27924 | 33750 ft | 490 kts | 339° |
| 2026-04-21 17:35 | 35.62853 | -119.28908 | 34041 ft | 489 kts | 339° |
| 2026-04-21 17:35 | 35.66162 | -119.29897 | 34329 ft | 488 kts | 339° |
| 2026-04-21 17:35 | 35.69465 | -119.30888 | 34617 ft | 487 kts | 339° |
| 2026-04-21 17:36 | 35.72761 | -119.31876 | 34890 ft | 486 kts | 339° |
| 2026-04-21 17:36 | 35.76048 | -119.32863 | 35157 ft | 486 kts | 339° |
| 2026-04-21 17:36 | 35.79289 | -119.33842 | 35408 ft | 485 kts | 339° |
| 2026-04-21 17:36 | 35.82570 | -119.34833 | 35647 ft | 484 kts | 339° |
| 2026-04-21 17:37 | 35.85852 | -119.35822 | 35869 ft | 484 kts | 339° |
| 2026-04-21 17:37 | 35.89123 | -119.36806 | 36049 ft | 483 kts | 339° |
| 2026-04-21 17:37 | 35.95663 | -119.38768 | 36082 ft | 483 kts | 339° |
| 2026-04-21 17:38 | 36.02162 | -119.40726 | 36082 ft | 483 kts | 339° |
| 2026-04-21 17:38 | 36.08729 | -119.42727 | 36073 ft | 487 kts | 339° |
| 2026-04-21 17:39 | 36.15331 | -119.44737 | 36072 ft | 488 kts | 339° |
| 2026-04-21 17:39 | 36.21934 | -119.46743 | 36070 ft | 488 kts | 339° |
| 2026-04-21 17:40 | 36.28544 | -119.48751 | 36069 ft | 489 kts | 339° |
| 2026-04-21 17:40 | 36.35116 | -119.50745 | 36067 ft | 489 kts | 339° |
| 2026-04-21 17:41 | 36.41736 | -119.52766 | 36070 ft | 489 kts | 339° |
| 2026-04-21 17:41 | 36.48349 | -119.54788 | 36063 ft | 489 kts | 339° |
| 2026-04-21 17:42 | 36.54965 | -119.56816 | 36066 ft | 489 kts | 340° |
| 2026-04-21 17:42 | 36.61538 | -119.58834 | 36063 ft | 489 kts | 340° |
| 2026-04-21 17:43 | 36.68161 | -119.60876 | 36058 ft | 490 kts | 340° |
| 2026-04-21 17:43 | 36.74778 | -119.62923 | 36051 ft | 490 kts | 340° |
| 2026-04-21 17:44 | 36.81416 | -119.64968 | 36050 ft | 491 kts | 340° |
| 2026-04-21 17:44 | 36.88011 | -119.67006 | 36056 ft | 491 kts | 340° |
| 2026-04-21 17:45 | 36.94653 | -119.69061 | 36060 ft | 492 kts | 340° |
| 2026-04-21 17:45 | 37.01297 | -119.71115 | 36046 ft | 492 kts | 340° |
| 2026-04-21 17:46 | 37.07958 | -119.73182 | 36047 ft | 493 kts | 340° |
| 2026-04-21 17:46 | 37.14626 | -119.75266 | 36042 ft | 493 kts | 340° |
| 2026-04-21 17:47 | 37.21257 | -119.77340 | 36036 ft | 494 kts | 341° |
| 2026-04-21 17:47 | 37.27952 | -119.79434 | 36038 ft | 495 kts | 341° |
| 2026-04-21 17:48 | 37.34637 | -119.81524 | 36036 ft | 495 kts | 341° |
| 2026-04-21 17:48 | 37.41342 | -119.83629 | 36037 ft | 496 kts | 341° |
| 2026-04-21 17:49 | 37.48019 | -119.85721 | 36038 ft | 497 kts | 341° |
| 2026-04-21 17:49 | 37.54752 | -119.87838 | 36037 ft | 498 kts | 341° |
| 2026-04-21 17:50 | 37.61443 | -119.89953 | 36034 ft | 499 kts | 341° |
| 2026-04-21 17:50 | 37.68193 | -119.92084 | 36052 ft | 500 kts | 341° |
| 2026-04-21 17:51 | 37.74943 | -119.94217 | 36037 ft | 500 kts | 341° |
| 2026-04-21 17:51 | 37.80555 | -119.96003 | 36050 ft | 500 kts | 341° |
| 2026-04-21 17:52 | 37.88417 | -119.98509 | 36036 ft | 501 kts | 341° |
| 2026-04-21 17:52 | 37.95187 | -120.00659 | 36047 ft | 501 kts | 341° |
| 2026-04-21 17:53 | 38.00823 | -120.02446 | 36051 ft | 501 kts | 341° |
| 2026-04-21 17:53 | 38.07599 | -120.04606 | 36051 ft | 502 kts | 341° |
| 2026-04-21 17:54 | 38.14378 | -120.06780 | 36050 ft | 502 kts | 341° |
| 2026-04-21 17:54 | 38.21157 | -120.08959 | 36056 ft | 502 kts | 341° |
| 2026-04-21 17:55 | 38.27864 | -120.11259 | 36056 ft | 501 kts | 339° |
| 2026-04-21 17:55 | 38.34524 | -120.13916 | 36053 ft | 500 kts | 337° |
| 2026-04-21 17:56 | 38.41147 | -120.16658 | 36043 ft | 501 kts | 337° |
| 2026-04-21 17:56 | 38.47807 | -120.19332 | 36033 ft | 502 kts | 338° |
| 2026-04-21 17:57 | 38.54448 | -120.21923 | 36028 ft | 503 kts | 338° |
| 2026-04-21 17:57 | 38.61156 | -120.24549 | 36019 ft | 504 kts | 338° |
| 2026-04-21 17:58 | 38.67863 | -120.27208 | 36006 ft | 504 kts | 338° |
| 2026-04-21 17:58 | 38.74573 | -120.29894 | 35995 ft | 506 kts | 338° |
| 2026-04-21 17:59 | 38.81303 | -120.32567 | 35988 ft | 507 kts | 338° |
| 2026-04-21 17:59 | 38.88018 | -120.35232 | 35982 ft | 508 kts | 338° |
| 2026-04-21 18:00 | 38.94779 | -120.37941 | 35982 ft | 509 kts | 338° |
| 2026-04-21 18:00 | 39.01556 | -120.40667 | 35980 ft | 510 kts | 338° |
| 2026-04-21 18:01 | 39.08308 | -120.43379 | 35978 ft | 511 kts | 338° |
| 2026-04-21 18:01 | 39.15115 | -120.46108 | 35977 ft | 513 kts | 338° |
| 2026-04-21 18:02 | 39.21942 | -120.48856 | 35976 ft | 513 kts | 338° |
| 2026-04-21 18:02 | 39.28734 | -120.51602 | 35989 ft | 515 kts | 338° |
| 2026-04-21 18:03 | 39.35590 | -120.54383 | 35999 ft | 517 kts | 338° |
| 2026-04-21 18:03 | 39.42474 | -120.57172 | 35999 ft | 517 kts | 338° |
| 2026-04-21 18:04 | 39.49300 | -120.59944 | 36003 ft | 517 kts | 339° |
| 2026-04-21 18:04 | 39.56179 | -120.62743 | 36004 ft | 518 kts | 339° |
| 2026-04-21 18:05 | 39.63076 | -120.65558 | 36001 ft | 518 kts | 338° |
| 2026-04-21 18:05 | 39.69956 | -120.68372 | 36005 ft | 518 kts | 338° |
| 2026-04-21 18:06 | 39.76809 | -120.71175 | 36003 ft | 519 kts | 339° |
| 2026-04-21 18:06 | 39.83691 | -120.73989 | 35996 ft | 519 kts | 339° |
| 2026-04-21 18:07 | 39.90580 | -120.76817 | 35994 ft | 518 kts | 339° |
| 2026-04-21 18:07 | 39.97453 | -120.79667 | 35994 ft | 519 kts | 338° |
| 2026-04-21 18:08 | 40.04342 | -120.82518 | 35972 ft | 519 kts | 339° |
| 2026-04-21 18:08 | 40.11230 | -120.85361 | 35967 ft | 520 kts | 339° |
| 2026-04-21 18:09 | 40.18097 | -120.88207 | 35966 ft | 520 kts | 339° |
| 2026-04-21 18:09 | 40.25016 | -120.91095 | 35962 ft | 520 kts | 339° |
| 2026-04-21 18:10 | 40.31925 | -120.93977 | 35963 ft | 521 kts | 339° |
| 2026-04-21 18:10 | 40.38841 | -120.96853 | 35966 ft | 522 kts | 339° |
| 2026-04-21 18:11 | 40.45721 | -120.99740 | 35964 ft | 522 kts | 339° |
| 2026-04-21 18:11 | 40.52653 | -121.02653 | 35965 ft | 523 kts | 339° |
| 2026-04-21 18:12 | 40.59582 | -121.05565 | 35967 ft | 523 kts | 339° |
| 2026-04-21 18:12 | 40.66529 | -121.08490 | 35962 ft | 523 kts | 339° |
| 2026-04-21 18:13 | 40.73479 | -121.11417 | 35963 ft | 524 kts | 339° |
| 2026-04-21 18:13 | 40.80385 | -121.14336 | 35961 ft | 524 kts | 339° |
| 2026-04-21 18:14 | 40.90812 | -121.18769 | 35955 ft | 524 kts | 339° |
| 2026-04-21 18:15 | 40.97732 | -121.21714 | 35952 ft | 524 kts | 339° |
| 2026-04-21 18:15 | 41.04696 | -121.24679 | 35951 ft | 525 kts | 339° |
| 2026-04-21 18:16 | 41.11625 | -121.27635 | 35945 ft | 525 kts | 339° |
| 2026-04-21 18:16 | 41.18590 | -121.30614 | 35942 ft | 526 kts | 339° |
| 2026-04-21 18:17 | 41.25566 | -121.33607 | 35938 ft | 526 kts | 339° |
| 2026-04-21 18:17 | 41.32541 | -121.36615 | 35935 ft | 527 kts | 339° |
| 2026-04-21 18:18 | 41.39481 | -121.39609 | 35931 ft | 527 kts | 339° |
| 2026-04-21 18:18 | 41.46476 | -121.42632 | 35928 ft | 528 kts | 339° |
| 2026-04-21 18:19 | 41.53480 | -121.45663 | 35927 ft | 530 kts | 339° |
| 2026-04-21 18:19 | 41.60494 | -121.48704 | 35922 ft | 530 kts | 339° |
| 2026-04-21 18:20 | 41.67481 | -121.51747 | 35918 ft | 531 kts | 339° |
| 2026-04-21 18:20 | 41.74519 | -121.54821 | 35919 ft | 532 kts | 339° |
| 2026-04-21 18:21 | 41.81576 | -121.57905 | 35923 ft | 533 kts | 340° |
| 2026-04-21 18:21 | 41.88645 | -121.61006 | 35926 ft | 534 kts | 339° |
| 2026-04-21 18:22 | 41.95686 | -121.64099 | 35927 ft | 535 kts | 340° |
| 2026-04-21 18:22 | 42.02757 | -121.67201 | 35927 ft | 535 kts | 340° |
| 2026-04-21 18:23 | 42.09844 | -121.70328 | 35924 ft | 535 kts | 340° |
| 2026-04-21 18:23 | 42.16924 | -121.73489 | 35927 ft | 536 kts | 339° |
| 2026-04-21 18:24 | 42.23942 | -121.76901 | 35931 ft | 535 kts | 337° |
| 2026-04-21 18:24 | 42.30913 | -121.80479 | 35930 ft | 535 kts | 336° |
| 2026-04-21 18:25 | 42.37847 | -121.84010 | 35932 ft | 535 kts | 337° |
| 2026-04-21 18:25 | 42.44848 | -121.87506 | 35932 ft | 536 kts | 337° |
| 2026-04-21 18:26 | 42.51863 | -121.90999 | 35935 ft | 535 kts | 337° |
| 2026-04-21 18:26 | 42.58848 | -121.94493 | 35936 ft | 535 kts | 337° |
| 2026-04-21 18:27 | 42.65800 | -121.98002 | 35937 ft | 534 kts | 337° |
| 2026-04-21 18:27 | 42.72759 | -122.01534 | 35938 ft | 534 kts | 337° |
| 2026-04-21 18:28 | 42.79687 | -122.05047 | 35943 ft | 533 kts | 338° |
| 2026-04-21 18:28 | 42.86653 | -122.08579 | 35948 ft | 533 kts | 338° |
| 2026-04-21 18:29 | 42.93621 | -122.12120 | 35951 ft | 532 kts | 338° |
| 2026-04-21 18:29 | 43.00516 | -122.15635 | 35948 ft | 532 kts | 338° |
| 2026-04-21 18:30 | 43.07436 | -122.19188 | 35950 ft | 531 kts | 337° |
| 2026-04-21 18:30 | 43.14362 | -122.22752 | 35950 ft | 531 kts | 338° |
| 2026-04-21 18:31 | 43.21249 | -122.26284 | 35946 ft | 531 kts | 338° |
| 2026-04-21 18:31 | 43.28173 | -122.29839 | 35952 ft | 531 kts | 337° |
| 2026-04-21 18:32 | 43.35094 | -122.33416 | 35954 ft | 531 kts | 338° |
| 2026-04-21 18:32 | 43.42014 | -122.37000 | 35957 ft | 530 kts | 338° |
| 2026-04-21 18:33 | 43.48885 | -122.40576 | 35955 ft | 530 kts | 338° |
| 2026-04-21 18:33 | 43.55808 | -122.44180 | 35963 ft | 530 kts | 338° |
| 2026-04-21 18:34 | 43.62729 | -122.47792 | 35965 ft | 531 kts | 338° |
| 2026-04-21 18:34 | 43.69638 | -122.51401 | 35967 ft | 531 kts | 338° |
| 2026-04-21 18:35 | 43.75384 | -122.54401 | 35970 ft | 531 kts | 338° |
| 2026-04-21 18:35 | 43.83413 | -122.58627 | 35703 ft | 531 kts | 337° |
| 2026-04-21 18:35 | 43.86873 | -122.60451 | 35443 ft | 531 kts | 337° |
| 2026-04-21 18:36 | 43.90348 | -122.62287 | 34477 ft | 538 kts | 337° |
| 2026-04-21 18:36 | 43.93878 | -122.64155 | 33368 ft | 546 kts | 338° |
| 2026-04-21 18:36 | 43.97442 | -122.66041 | 32180 ft | 552 kts | 338° |
| 2026-04-21 18:36 | 44.01053 | -122.67953 | 30910 ft | 558 kts | 337° |
| 2026-04-21 18:37 | 44.04687 | -122.69878 | 30164 ft | 554 kts | 337° |
| 2026-04-21 18:37 | 44.08273 | -122.71772 | 29350 ft | 549 kts | 337° |
| 2026-04-21 18:37 | 44.11860 | -122.73540 | 28567 ft | 545 kts | 343° |
| 2026-04-21 18:37 | 44.15515 | -122.74595 | 27787 ft | 542 kts | 354° |
| 2026-04-21 18:38 | 44.19240 | -122.74858 | 27186 ft | 530 kts | 4° |
| 2026-04-21 18:38 | 44.22899 | -122.74554 | 26513 ft | 523 kts | 7° |
| 2026-04-21 18:38 | 44.26499 | -122.74207 | 25830 ft | 517 kts | 7° |
| 2026-04-21 18:38 | 44.30065 | -122.73856 | 25292 ft | 508 kts | 7° |
| 2026-04-21 18:39 | 44.33585 | -122.73505 | 24596 ft | 504 kts | 7° |
| 2026-04-21 18:39 | 44.37049 | -122.73154 | 24088 ft | 494 kts | 7° |
| 2026-04-21 18:39 | 44.39323 | -122.72925 | 23553 ft | 493 kts | 7° |
| 2026-04-21 18:39 | 44.43804 | -122.72477 | 22924 ft | 481 kts | 7° |
| 2026-04-21 18:40 | 44.47142 | -122.72149 | 22268 ft | 477 kts | 6° |
| 2026-04-21 18:40 | 44.49366 | -122.71933 | 21951 ft | 471 kts | 7° |
| 2026-04-21 18:40 | 44.52574 | -122.71620 | 21370 ft | 467 kts | 7° |
| 2026-04-21 18:40 | 44.55786 | -122.71304 | 20976 ft | 456 kts | 7° |
| 2026-04-21 18:41 | 44.58861 | -122.71006 | 20775 ft | 429 kts | 7° |
| 2026-04-21 18:41 | 44.61790 | -122.70722 | 20190 ft | 415 kts | 7° |
| 2026-04-21 18:41 | 44.64655 | -122.70435 | 19701 ft | 410 kts | 7° |
| 2026-04-21 18:41 | 44.67483 | -122.70145 | 19312 ft | 404 kts | 7° |
| 2026-04-21 18:42 | 44.70279 | -122.69856 | 18856 ft | 402 kts | 7° |
| 2026-04-21 18:42 | 44.73056 | -122.69570 | 18435 ft | 398 kts | 7° |
| 2026-04-21 18:42 | 44.75813 | -122.69289 | 18024 ft | 394 kts | 7° |
| 2026-04-21 18:42 | 44.78533 | -122.69013 | 17614 ft | 390 kts | 7° |
| 2026-04-21 18:43 | 44.81233 | -122.68738 | 17102 ft | 384 kts | 7° |
| 2026-04-21 18:43 | 44.83847 | -122.68477 | 16306 ft | 380 kts | 7° |
| 2026-04-21 18:43 | 44.86473 | -122.68215 | 15541 ft | 375 kts | 7° |
| 2026-04-21 18:43 | 44.89070 | -122.67951 | 14984 ft | 373 kts | 6° |
| 2026-04-21 18:44 | 44.91639 | -122.67685 | 14604 ft | 368 kts | 6° |
| 2026-04-21 18:44 | 44.94143 | -122.67428 | 14418 ft | 350 kts | 6° |
| 2026-04-21 18:44 | 44.96529 | -122.67189 | 14040 ft | 340 kts | 6° |
| 2026-04-21 18:44 | 44.98882 | -122.66953 | 13681 ft | 340 kts | 6° |
| 2026-04-21 18:45 | 45.01233 | -122.66718 | 13351 ft | 337 kts | 5° |
| 2026-04-21 18:45 | 45.03575 | -122.66483 | 12983 ft | 336 kts | 5° |
| 2026-04-21 18:45 | 45.05879 | -122.66250 | 12535 ft | 337 kts | 5° |
| 2026-04-21 18:45 | 45.08195 | -122.66015 | 12254 ft | 332 kts | 5° |
| 2026-04-21 18:46 | 45.10493 | -122.65783 | 11880 ft | 330 kts | 5° |
| 2026-04-21 18:46 | 45.12782 | -122.65552 | 11533 ft | 328 kts | 5° |
| 2026-04-21 18:46 | 45.15051 | -122.65324 | 11199 ft | 324 kts | 5° |
| 2026-04-21 18:46 | 45.17293 | -122.65094 | 10860 ft | 321 kts | 5° |
| 2026-04-21 18:47 | 45.19522 | -122.64866 | 10517 ft | 318 kts | 5° |
| 2026-04-21 18:47 | 45.21714 | -122.64640 | 10191 ft | 314 kts | 5° |
| 2026-04-21 18:47 | 45.23875 | -122.64313 | 9850 ft | 310 kts | 13° |
| 2026-04-21 18:47 | 45.25881 | -122.63361 | 9505 ft | 305 kts | 27° |
| 2026-04-21 18:48 | 45.27689 | -122.61851 | 8921 ft | 299 kts | 33° |
| 2026-04-21 18:48 | 45.29442 | -122.60275 | 8252 ft | 295 kts | 32° |
| 2026-04-21 18:48 | 45.31165 | -122.58720 | 7575 ft | 291 kts | 32° |
| 2026-04-21 18:48 | 45.32865 | -122.57189 | 6944 ft | 289 kts | 32° |
| 2026-04-21 18:49 | 45.34533 | -122.55683 | 6537 ft | 286 kts | 32° |
| 2026-04-21 18:49 | 45.36206 | -122.54174 | 6249 ft | 275 kts | 32° |
| 2026-04-21 18:49 | 45.37251 | -122.53233 | 6076 ft | 263 kts | 32° |
| 2026-04-21 18:49 | 45.39287 | -122.51399 | 5847 ft | 257 kts | 32° |
| 2026-04-21 18:50 | 45.40796 | -122.50037 | 5722 ft | 257 kts | 32° |
| 2026-04-21 18:50 | 45.42276 | -122.48628 | 5644 ft | 256 kts | 41° |
| 2026-04-21 18:50 | 45.43292 | -122.46570 | 5512 ft | 255 kts | 71° |
| 2026-04-21 18:50 | 45.43469 | -122.44103 | 5355 ft | 253 kts | 101° |
| 2026-04-21 18:51 | 45.42837 | -122.41794 | 5200 ft | 248 kts | 120° |
| 2026-04-21 18:51 | 45.42026 | -122.39733 | 5091 ft | 235 kts | 121° |
| 2026-04-21 18:51 | 45.41246 | -122.37745 | 5006 ft | 226 kts | 118° |
| 2026-04-21 18:51 | 45.40840 | -122.35612 | 4849 ft | 225 kts | 88° |
| 2026-04-21 18:52 | 45.41301 | -122.33528 | 4512 ft | 222 kts | 53° |
| 2026-04-21 18:52 | 45.42497 | -122.32187 | 4158 ft | 221 kts | 18° |
| 2026-04-21 18:52 | 45.44003 | -122.32052 | 3821 ft | 218 kts | 344° |
| 2026-04-21 18:52 | 45.45394 | -122.32823 | 3468 ft | 218 kts | 330° |
| 2026-04-21 18:53 | 45.46685 | -122.33941 | 3190 ft | 215 kts | 325° |
| 2026-04-21 18:53 | 45.47903 | -122.35106 | 3057 ft | 207 kts | 324° |
| 2026-04-21 18:53 | 45.49088 | -122.36258 | 2958 ft | 200 kts | 322° |
| 2026-04-21 18:53 | 45.49968 | -122.37737 | 2909 ft | 196 kts | 297° |
| 2026-04-21 18:54 | 45.50626 | -122.39417 | 2887 ft | 197 kts | 297° |
| 2026-04-21 18:54 | 45.51283 | -122.41101 | 2724 ft | 191 kts | 298° |
| 2026-04-21 18:54 | 45.51923 | -122.42734 | 2481 ft | 186 kts | 298° |
| 2026-04-21 18:54 | 45.52548 | -122.44328 | 2243 ft | 181 kts | 298° |
| 2026-04-21 18:55 | 45.52957 | -122.45371 | 2087 ft | 174 kts | 298° |
| 2026-04-21 18:55 | 45.53711 | -122.47275 | 1785 ft | 158 kts | 299° |
| 2026-04-21 18:55 | 45.54233 | -122.48604 | 1595 ft | 151 kts | 299° |
| 2026-04-21 18:55 | 45.54737 | -122.49899 | 1395 ft | 147 kts | 298° |
| 2026-04-21 18:56 | 45.55232 | -122.51175 | 1204 ft | 146 kts | 298° |
| 2026-04-21 18:56 | 45.55718 | -122.52421 | 1004 ft | 145 kts | 298° |
| 2026-04-21 18:56 | 45.56208 | -122.53675 | 803 ft | 143 kts | 299° |
| 2026-04-21 18:56 | 45.56696 | -122.54920 | 627 ft | 143 kts | 298° |
| 2026-04-21 18:57 | 45.57189 | -122.56171 | 425 ft | 145 kts | 300° |
| 2026-04-21 18:57 | 45.57675 | -122.57424 | 236 ft | 143 kts | 299° |
| 2026-04-21 18:57 | 45.58160 | -122.58656 | 48 ft | 141 kts | 298° |
| 2026-04-21 18:57 | 45.58585 | -122.59750 | 30 ft | 108 kts | 299° |
| 2026-04-21 18:58 | 45.58865 | -122.60474 | 27 ft | 59 kts | 299° |
| 2026-04-21 18:58 | 45.59022 | -122.60872 | 29 ft | 41 kts | 299° |
| 2026-04-21 18:58 | 45.59152 | -122.61206 | 28 ft | 33 kts | 300° |
| 2026-04-21 18:58 | 45.59283 | -122.61332 | 27 ft | 17 kts | 16° |
| 2026-04-21 18:59 | 45.59342 | -122.61241 | 28 ft | 10 kts | 95° |
| 2026-04-21 18:59 | 45.59318 | -122.61163 | 28 ft | 7 kts | 115° |
| 2026-04-21 18:59 | 45.59301 | -122.61113 | 28 ft | 5 kts | 117° |
| 2026-04-21 18:59 | 45.59264 | -122.61014 | 29 ft | 17 kts | 118° |
| 2026-04-21 19:00 | 45.59206 | -122.60864 | 28 ft | 17 kts | 119° |
| 2026-04-21 19:00 | 45.59147 | -122.60710 | 28 ft | 18 kts | 114° |
| 2026-04-21 19:00 | 45.59140 | -122.60531 | 29 ft | 18 kts | 90° |
| 2026-04-21 19:00 | 45.59140 | -122.60343 | 28 ft | 20 kts | 90° |
| 2026-04-21 19:01 | 45.59157 | -122.60160 | 28 ft | 17 kts | 58° |
| 2026-04-21 19:01 | 45.59242 | -122.60036 | 28 ft | 18 kts | 45° |
| 2026-04-21 19:01 | 45.59335 | -122.59911 | 28 ft | 19 kts | 44° |
| 2026-04-21 19:01 | 45.59346 | -122.59752 | 30 ft | 18 kts | 117° |
| 2026-04-21 19:02 | 45.59296 | -122.59623 | 31 ft | 11 kts | 119° |
| 2026-04-21 19:02 | 45.59260 | -122.59530 | 31 ft | 10 kts | 121° |
| 2026-04-21 19:02 | 45.59229 | -122.59456 | 31 ft | 4 kts | 120° |
| 2026-04-21 19:02 | 45.59213 | -122.59417 | 30 ft | 5 kts | 120° |
| 2026-04-21 19:03 | 45.59188 | -122.59421 | 30 ft | 6 kts | 199° |
| 2026-04-21 19:03 | 45.59152 | -122.59456 | 30 ft | 5 kts | 227° |
| 2026-04-21 19:03 | 45.59141 | -122.59474 | 30 ft | 0 kts | 229° |